Triangle Ranch Private, TX

4:43 AM CST on February 22, 2017 (GMT -0600)
Guadalupe Pass | | Change Station
Active Advisory: Fire Weather Warning

Elev 5453 ft 31.83 °N, 104.80 °W | Updated 52 minutes ago

Clear
Clear
48 °F
Feels Like 48 °F
N
18
Wind Variable Wind from WSW

Today
High -- | Low -- °F
--% Chance of Precip.
Yesterday
High -- | Low -- °F
Precip. -- in
Pressure 29.99 in
Visibility 10.0 miles
Clouds Clear
Dew Point 32 °F
Humidity 54%
Rainfall 0.00 in
Snow Depth Not available.
7:32 AM 6:51 PM
Waning Crescent, 18% visible
METAR KGDP 220951Z AUTO 24016KT 10SM CLR 09/00 A3015 RMK AO2 SLP156 T00890000
Pressure 29.99 in
Visibility 10.0 miles
Clouds Clear
Dew Point 32 °F
Humidity 54%
Rainfall 0.00 in
Snow Depth Not available.
7:32 AM 6:51 PM
Waning Crescent, 18% visible
METAR KGDP 220951Z AUTO 24016KT 10SM CLR 09/00 A3015 RMK AO2 SLP156 T00890000

Get Your Daily Forecast Email!

Thanks for signing up!

Be on the lookout for a verification email in your inbox.

You'll start receiving the daily forecast at 8 AM.

×

10-Day Weather Forecast

Almanac

Astronomy

Feb. 22, 2017 Rise Set
Actual Time
Civil Twilight
Nautical Twilight
Astronomical Twilight
Moon
Length of Visible Light
Length of Day
Tomorrow will be .
, % of the Moon is Illuminated

Today's Extremes

State Highs State Lows

Community

WunderPhotos

Upload Photos

1,962,540 photos uploaded!

WunderBlog® & News

Nearby

Air Quality

  Air Quality AQ Index Pollutant
Not available.

Snow Depth

Station Depth Elevation

Earthquake Activity

City Distance Mag. Time & Date
Minimum magnitude displayed is 2.5.

Coastal Water Temperatures

Place Temperature

Stations

Nearby Weather Stations

Station Location Temp. Windchill Dew Point Humidity Wind Precip. Elev Updated Type
                   

Watches & Warnings

Fire Weather Warning
Issued: 3:16 AM MST Feb. 22, 2017 – National Weather Service

... Red flag warning in effect from 11 am CST /10 am MST/ to 8 PM
CST /7 PM MST/ Thursday for warm... dry... and windy conditions
for southeast New Mexico... western Permian Basin... the Davis
Mountains... and the Marfa Plateau...

The National Weather Service in Midland/Odessa has issued a red
flag warning, which is in effect from 11 am CST /10 am MST/ to
8 PM CST /7 PM MST/ Thursday. The Fire Weather Watch is no longer
in effect.

* Wind... west 25 to 35 mph with higher gusts.

* Humidity... near 10 percent

* temperatures... 10 to 15 degrees above normal

* impacts... any fires that develop will likely spread rapidly.
Outdoor burning is not recommended.

Precautionary/preparedness actions...

A red flag warning means that critical fire weather conditions
are either occurring now or will shortly. A combination of strong
winds, low relative humidity and warm temperatures can contribute
to dangerous fire behavior.